sensor_id;sensor_type;location;lat;lon;timestamp;P1;durP1;ratioP1;P2;durP2;ratioP2
39190;SDS011;24916;51.676;6.614;2022-07-09T00:00:41;8.60;;;4.50;;
39190;SDS011;24916;51.676;6.614;2022-07-09T00:03:06;7.25;;;3.72;;
39190;SDS011;24916;51.676;6.614;2022-07-09T00:05:31;8.93;;;4.32;;
39190;SDS011;24916;51.676;6.614;2022-07-09T00:07:57;5.80;;;3.80;;
39190;SDS011;24916;51.676;6.614;2022-07-09T00:10:22;7.67;;;3.90;;
39190;SDS011;24916;51.676;6.614;2022-07-09T00:12:47;5.10;;;4.07;;
39190;SDS011;24916;51.676;6.614;2022-07-09T00:15:12;8.15;;;4.20;;
39190;SDS011;24916;51.676;6.614;2022-07-09T00:17:38;6.38;;;3.85;;
39190;SDS011;24916;51.676;6.614;2022-07-09T00:20:03;6.22;;;4.38;;
39190;SDS011;24916;51.676;6.614;2022-07-09T00:22:30;7.38;;;4.28;;
39190;SDS011;24916;51.676;6.614;2022-07-09T00:24:56;7.55;;;4.70;;
39190;SDS011;24916;51.676;6.614;2022-07-09T00:27:22;10.25;;;4.40;;
39190;SDS011;24916;51.676;6.614;2022-07-09T00:29:47;8.32;;;4.80;;
39190;SDS011;24916;51.676;6.614;2022-07-09T00:32:13;7.35;;;4.82;;
39190;SDS011;24916;51.676;6.614;2022-07-09T00:34:38;10.20;;;4.93;;
39190;SDS011;24916;51.676;6.614;2022-07-09T00:37:04;12.93;;;5.33;;
39190;SDS011;24916;51.676;6.614;2022-07-09T00:39:30;9.30;;;5.50;;
39190;SDS011;24916;51.676;6.614;2022-07-09T00:42:08;11.05;;;5.57;;
39190;SDS011;24916;51.676;6.614;2022-07-09T00:44:33;10.65;;;6.90;;
39190;SDS011;24916;51.676;6.614;2022-07-09T00:46:59;9.83;;;6.20;;
39190;SDS011;24916;51.676;6.614;2022-07-09T00:49:24;9.07;;;6.30;;
39190;SDS011;24916;51.676;6.614;2022-07-09T00:51:49;13.50;;;7.65;;
39190;SDS011;24916;51.676;6.614;2022-07-09T00:54:15;14.65;;;7.90;;
39190;SDS011;24916;51.676;6.614;2022-07-09T00:56:40;11.48;;;7.25;;
39190;SDS011;24916;51.676;6.614;2022-07-09T00:59:06;11.18;;;7.93;;
39190;SDS011;24916;51.676;6.614;2022-07-09T01:01:35;12.45;;;7.45;;
39190;SDS011;24916;51.676;6.614;2022-07-09T01:04:00;10.35;;;7.05;;
39190;SDS011;24916;51.676;6.614;2022-07-09T01:06:26;11.25;;;7.90;;
39190;SDS011;24916;51.676;6.614;2022-07-09T01:08:51;11.95;;;7.70;;
39190;SDS011;24916;51.676;6.614;2022-07-09T01:11:16;11.97;;;7.47;;
39190;SDS011;24916;51.676;6.614;2022-07-09T01:13:42;11.90;;;8.32;;
39190;SDS011;24916;51.676;6.614;2022-07-09T01:16:16;15.02;;;7.75;;
39190;SDS011;24916;51.676;6.614;2022-07-09T01:18:44;10.43;;;7.65;;
39190;SDS011;24916;51.676;6.614;2022-07-09T01:21:10;12.75;;;7.82;;
39190;SDS011;24916;51.676;6.614;2022-07-09T01:23:35;11.95;;;8.60;;
39190;SDS011;24916;51.676;6.614;2022-07-09T01:26:01;11.60;;;8.97;;
39190;SDS011;24916;51.676;6.614;2022-07-09T01:28:26;15.27;;;9.13;;
39190;SDS011;24916;51.676;6.614;2022-07-09T01:30:51;14.63;;;9.25;;
39190;SDS011;24916;51.676;6.614;2022-07-09T01:33:16;12.85;;;9.65;;
39190;SDS011;24916;51.676;6.614;2022-07-09T01:35:42;12.07;;;8.73;;
39190;SDS011;24916;51.676;6.614;2022-07-09T01:38:07;10.82;;;8.90;;
39190;SDS011;24916;51.676;6.614;2022-07-09T01:40:33;12.17;;;9.33;;
39190;SDS011;24916;51.676;6.614;2022-07-09T01:42:58;14.18;;;9.40;;
39190;SDS011;24916;51.676;6.614;2022-07-09T01:45:23;18.38;;;9.50;;
39190;SDS011;24916;51.676;6.614;2022-07-09T01:47:48;12.82;;;9.38;;
39190;SDS011;24916;51.676;6.614;2022-07-09T01:50:14;17.70;;;9.70;;
39190;SDS011;24916;51.676;6.614;2022-07-09T01:52:39;14.47;;;9.53;;
39190;SDS011;24916;51.676;6.614;2022-07-09T01:55:04;12.50;;;9.47;;
39190;SDS011;24916;51.676;6.614;2022-07-09T01:57:30;15.95;;;8.13;;
39190;SDS011;24916;51.676;6.614;2022-07-09T01:59:55;17.13;;;8.98;;
39190;SDS011;24916;51.676;6.614;2022-07-09T02:02:20;14.77;;;8.60;;
39190;SDS011;24916;51.676;6.614;2022-07-09T02:04:46;13.57;;;8.70;;
39190;SDS011;24916;51.676;6.614;2022-07-09T02:07:12;10.18;;;7.28;;
39190;SDS011;24916;51.676;6.614;2022-07-09T02:09:37;18.52;;;8.18;;
39190;SDS011;24916;51.676;6.614;2022-07-09T02:12:03;13.02;;;7.75;;
39190;SDS011;24916;51.676;6.614;2022-07-09T02:14:29;17.85;;;8.35;;
39190;SDS011;24916;51.676;6.614;2022-07-09T02:16:54;14.27;;;8.83;;
39190;SDS011;24916;51.676;6.614;2022-07-09T02:19:19;11.77;;;8.00;;
39190;SDS011;24916;51.676;6.614;2022-07-09T02:21:45;14.23;;;8.77;;
39190;SDS011;24916;51.676;6.614;2022-07-09T02:24:10;16.87;;;8.87;;
39190;SDS011;24916;51.676;6.614;2022-07-09T02:26:35;12.85;;;8.02;;
39190;SDS011;24916;51.676;6.614;2022-07-09T02:29:00;12.03;;;8.00;;
39190;SDS011;24916;51.676;6.614;2022-07-09T02:31:27;13.00;;;8.02;;
39190;SDS011;24916;51.676;6.614;2022-07-09T02:33:52;11.83;;;7.70;;
39190;SDS011;24916;51.676;6.614;2022-07-09T02:36:18;11.68;;;8.48;;
39190;SDS011;24916;51.676;6.614;2022-07-09T02:38:43;12.85;;;8.00;;
39190;SDS011;24916;51.676;6.614;2022-07-09T02:41:08;11.88;;;8.18;;
39190;SDS011;24916;51.676;6.614;2022-07-09T02:43:34;12.88;;;7.85;;
39190;SDS011;24916;51.676;6.614;2022-07-09T02:45:59;12.50;;;7.70;;
39190;SDS011;24916;51.676;6.614;2022-07-09T02:48:24;12.88;;;8.02;;
39190;SDS011;24916;51.676;6.614;2022-07-09T02:50:50;11.30;;;7.60;;
39190;SDS011;24916;51.676;6.614;2022-07-09T02:53:16;14.55;;;7.97;;
39190;SDS011;24916;51.676;6.614;2022-07-09T02:55:41;10.77;;;7.77;;
39190;SDS011;24916;51.676;6.614;2022-07-09T02:58:06;12.80;;;7.25;;
39190;SDS011;24916;51.676;6.614;2022-07-09T03:00:32;11.30;;;7.20;;
39190;SDS011;24916;51.676;6.614;2022-07-09T03:02:57;12.35;;;7.93;;
39190;SDS011;24916;51.676;6.614;2022-07-09T03:05:22;12.90;;;7.87;;
39190;SDS011;24916;51.676;6.614;2022-07-09T03:07:47;12.40;;;7.20;;
39190;SDS011;24916;51.676;6.614;2022-07-09T03:10:13;11.63;;;7.43;;
39190;SDS011;24916;51.676;6.614;2022-07-09T03:12:38;12.60;;;8.13;;
39190;SDS011;24916;51.676;6.614;2022-07-09T03:15:05;11.75;;;8.35;;
39190;SDS011;24916;51.676;6.614;2022-07-09T03:17:30;11.88;;;8.15;;
39190;SDS011;24916;51.676;6.614;2022-07-09T03:19:56;11.88;;;7.90;;
39190;SDS011;24916;51.676;6.614;2022-07-09T03:22:21;11.20;;;8.33;;
39190;SDS011;24916;51.676;6.614;2022-07-09T03:24:46;13.07;;;8.30;;
39190;SDS011;24916;51.676;6.614;2022-07-09T03:27:11;14.33;;;9.13;;
39190;SDS011;24916;51.676;6.614;2022-07-09T03:29:37;13.23;;;8.40;;
39190;SDS011;24916;51.676;6.614;2022-07-09T03:32:02;13.77;;;9.13;;
39190;SDS011;24916;51.676;6.614;2022-07-09T03:34:28;18.55;;;10.60;;
39190;SDS011;24916;51.676;6.614;2022-07-09T03:36:54;16.13;;;10.60;;
39190;SDS011;24916;51.676;6.614;2022-07-09T03:39:19;17.42;;;10.88;;
39190;SDS011;24916;51.676;6.614;2022-07-09T03:41:44;18.80;;;10.35;;
39190;SDS011;24916;51.676;6.614;2022-07-09T03:44:09;21.20;;;11.60;;
39190;SDS011;24916;51.676;6.614;2022-07-09T03:46:35;18.85;;;11.32;;
39190;SDS011;24916;51.676;6.614;2022-07-09T03:49:00;21.00;;;11.35;;
39190;SDS011;24916;51.676;6.614;2022-07-09T03:51:26;18.05;;;11.75;;
39190;SDS011;24916;51.676;6.614;2022-07-09T03:53:51;21.47;;;10.90;;
39190;SDS011;24916;51.676;6.614;2022-07-09T03:56:16;20.48;;;12.00;;
39190;SDS011;24916;51.676;6.614;2022-07-09T03:58:41;17.38;;;11.40;;
39190;SDS011;24916;51.676;6.614;2022-07-09T04:01:08;18.92;;;10.95;;
39190;SDS011;24916;51.676;6.614;2022-07-09T04:03:33;20.33;;;11.23;;
39190;SDS011;24916;51.676;6.614;2022-07-09T04:05:58;17.53;;;10.90;;
39190;SDS011;24916;51.676;6.614;2022-07-09T04:08:24;16.95;;;11.00;;
39190;SDS011;24916;51.676;6.614;2022-07-09T04:10:49;16.75;;;10.88;;
39190;SDS011;24916;51.676;6.614;2022-07-09T04:13:14;20.87;;;11.60;;
39190;SDS011;24916;51.676;6.614;2022-07-09T04:15:39;19.65;;;12.23;;
39190;SDS011;24916;51.676;6.614;2022-07-09T04:18:05;17.60;;;11.90;;
39190;SDS011;24916;51.676;6.614;2022-07-09T04:20:30;19.77;;;11.50;;
39190;SDS011;24916;51.676;6.614;2022-07-09T04:22:55;17.67;;;11.77;;
39190;SDS011;24916;51.676;6.614;2022-07-09T04:25:20;20.87;;;11.60;;
39190;SDS011;24916;51.676;6.614;2022-07-09T04:27:46;23.75;;;11.95;;
39190;SDS011;24916;51.676;6.614;2022-07-09T04:30:12;21.67;;;11.32;;
39190;SDS011;24916;51.676;6.614;2022-07-09T04:32:37;21.65;;;12.48;;
39190;SDS011;24916;51.676;6.614;2022-07-09T04:35:02;17.90;;;10.63;;
39190;SDS011;24916;51.676;6.614;2022-07-09T04:37:28;19.23;;;11.38;;
39190;SDS011;24916;51.676;6.614;2022-07-09T04:39:53;18.50;;;10.67;;
39190;SDS011;24916;51.676;6.614;2022-07-09T04:42:18;20.85;;;11.45;;
39190;SDS011;24916;51.676;6.614;2022-07-09T04:44:45;19.48;;;10.98;;
39190;SDS011;24916;51.676;6.614;2022-07-09T04:47:10;18.73;;;10.30;;
39190;SDS011;24916;51.676;6.614;2022-07-09T04:49:36;22.65;;;12.02;;
39190;SDS011;24916;51.676;6.614;2022-07-09T04:52:01;23.98;;;12.07;;
39190;SDS011;24916;51.676;6.614;2022-07-09T04:54:26;19.30;;;11.95;;
39190;SDS011;24916;51.676;6.614;2022-07-09T04:56:52;21.83;;;12.37;;
39190;SDS011;24916;51.676;6.614;2022-07-09T04:59:17;19.57;;;11.53;;
39190;SDS011;24916;51.676;6.614;2022-07-09T05:01:42;18.42;;;11.52;;
39190;SDS011;24916;51.676;6.614;2022-07-09T05:04:07;27.73;;;12.60;;
39190;SDS011;24916;51.676;6.614;2022-07-09T05:06:33;17.83;;;12.50;;
39190;SDS011;24916;51.676;6.614;2022-07-09T05:08:58;22.20;;;12.47;;
39190;SDS011;24916;51.676;6.614;2022-07-09T05:11:24;22.27;;;12.07;;
39190;SDS011;24916;51.676;6.614;2022-07-09T05:13:50;22.02;;;12.95;;
39190;SDS011;24916;51.676;6.614;2022-07-09T05:16:16;19.00;;;12.48;;
39190;SDS011;24916;51.676;6.614;2022-07-09T05:18:41;20.10;;;12.13;;
39190;SDS011;24916;51.676;6.614;2022-07-09T05:21:06;21.00;;;12.98;;
39190;SDS011;24916;51.676;6.614;2022-07-09T05:23:31;22.60;;;12.82;;
39190;SDS011;24916;51.676;6.614;2022-07-09T05:25:57;20.40;;;13.40;;
39190;SDS011;24916;51.676;6.614;2022-07-09T05:28:23;22.42;;;13.82;;
39190;SDS011;24916;51.676;6.614;2022-07-09T05:30:48;26.30;;;13.80;;
39190;SDS011;24916;51.676;6.614;2022-07-09T05:33:13;21.33;;;13.20;;
39190;SDS011;24916;51.676;6.614;2022-07-09T05:35:38;20.17;;;12.90;;
39190;SDS011;24916;51.676;6.614;2022-07-09T05:38:04;20.65;;;12.30;;
39190;SDS011;24916;51.676;6.614;2022-07-09T05:40:29;18.60;;;11.70;;
39190;SDS011;24916;51.676;6.614;2022-07-09T05:42:54;22.90;;;12.80;;
39190;SDS011;24916;51.676;6.614;2022-07-09T05:45:19;20.77;;;12.15;;
39190;SDS011;24916;51.676;6.614;2022-07-09T05:47:45;19.30;;;11.93;;
39190;SDS011;24916;51.676;6.614;2022-07-09T05:50:10;19.92;;;11.60;;
39190;SDS011;24916;51.676;6.614;2022-07-09T05:52:35;20.33;;;12.27;;
39190;SDS011;24916;51.676;6.614;2022-07-09T05:55:01;25.42;;;12.65;;
39190;SDS011;24916;51.676;6.614;2022-07-09T05:57:28;22.83;;;11.68;;
39190;SDS011;24916;51.676;6.614;2022-07-09T05:59:53;17.45;;;11.70;;
39190;SDS011;24916;51.676;6.614;2022-07-09T06:02:18;18.33;;;11.90;;
39190;SDS011;24916;51.676;6.614;2022-07-09T06:04:44;19.15;;;11.18;;
39190;SDS011;24916;51.676;6.614;2022-07-09T06:07:09;19.17;;;11.03;;
39190;SDS011;24916;51.676;6.614;2022-07-09T06:09:34;17.33;;;11.07;;
39190;SDS011;24916;51.676;6.614;2022-07-09T06:12:00;17.07;;;10.60;;
39190;SDS011;24916;51.676;6.614;2022-07-09T06:14:25;18.10;;;11.07;;
39190;SDS011;24916;51.676;6.614;2022-07-09T06:16:50;18.60;;;10.20;;
39190;SDS011;24916;51.676;6.614;2022-07-09T06:19:15;18.20;;;11.23;;
39190;SDS011;24916;51.676;6.614;2022-07-09T06:21:41;21.63;;;11.05;;
39190;SDS011;24916;51.676;6.614;2022-07-09T06:24:07;18.53;;;9.87;;
39190;SDS011;24916;51.676;6.614;2022-07-09T06:26:32;18.80;;;10.65;;
39190;SDS011;24916;51.676;6.614;2022-07-09T06:28:58;15.65;;;9.07;;
39190;SDS011;24916;51.676;6.614;2022-07-09T06:31:24;15.05;;;8.93;;
39190;SDS011;24916;51.676;6.614;2022-07-09T06:33:49;15.90;;;8.33;;
39190;SDS011;24916;51.676;6.614;2022-07-09T06:36:14;12.85;;;7.60;;
39190;SDS011;24916;51.676;6.614;2022-07-09T06:38:39;15.73;;;9.50;;
39190;SDS011;24916;51.676;6.614;2022-07-09T06:41:23;15.77;;;9.18;;
39190;SDS011;24916;51.676;6.614;2022-07-09T06:43:49;16.90;;;9.00;;
39190;SDS011;24916;51.676;6.614;2022-07-09T06:46:14;14.40;;;9.40;;
39190;SDS011;24916;51.676;6.614;2022-07-09T06:48:39;15.77;;;9.57;;
39190;SDS011;24916;51.676;6.614;2022-07-09T06:51:04;16.93;;;8.83;;
39190;SDS011;24916;51.676;6.614;2022-07-09T06:53:30;16.77;;;8.47;;
39190;SDS011;24916;51.676;6.614;2022-07-09T06:55:55;14.50;;;8.83;;
39190;SDS011;24916;51.676;6.614;2022-07-09T06:58:20;13.05;;;7.57;;
39190;SDS011;24916;51.676;6.614;2022-07-09T07:00:45;19.57;;;10.43;;
39190;SDS011;24916;51.676;6.614;2022-07-09T07:03:11;17.23;;;11.53;;
39190;SDS011;24916;51.676;6.614;2022-07-09T07:05:36;15.17;;;9.53;;
39190;SDS011;24916;51.676;6.614;2022-07-09T07:08:01;13.57;;;7.30;;
39190;SDS011;24916;51.676;6.614;2022-07-09T07:10:27;13.20;;;5.97;;
39190;SDS011;24916;51.676;6.614;2022-07-09T07:12:53;10.93;;;5.95;;
39190;SDS011;24916;51.676;6.614;2022-07-09T07:15:18;9.50;;;5.38;;
39190;SDS011;24916;51.676;6.614;2022-07-09T07:17:44;14.35;;;9.23;;
39190;SDS011;24916;51.676;6.614;2022-07-09T07:20:09;13.38;;;8.07;;
39190;SDS011;24916;51.676;6.614;2022-07-09T07:22:34;10.80;;;7.38;;
39190;SDS011;24916;51.676;6.614;2022-07-09T07:25:00;13.07;;;7.90;;
39190;SDS011;24916;51.676;6.614;2022-07-09T07:27:25;12.53;;;7.47;;
39190;SDS011;24916;51.676;6.614;2022-07-09T07:29:51;11.73;;;7.40;;
39190;SDS011;24916;51.676;6.614;2022-07-09T07:32:16;10.90;;;6.23;;
39190;SDS011;24916;51.676;6.614;2022-07-09T07:34:41;8.93;;;5.90;;
39190;SDS011;24916;51.676;6.614;2022-07-09T07:37:06;8.20;;;5.30;;
39190;SDS011;24916;51.676;6.614;2022-07-09T07:39:31;9.17;;;4.80;;
39190;SDS011;24916;51.676;6.614;2022-07-09T07:41:57;10.17;;;5.17;;
39190;SDS011;24916;51.676;6.614;2022-07-09T07:44:23;11.98;;;6.18;;
39190;SDS011;24916;51.676;6.614;2022-07-09T07:46:49;8.65;;;5.80;;
39190;SDS011;24916;51.676;6.614;2022-07-09T07:49:14;10.35;;;6.28;;
39190;SDS011;24916;51.676;6.614;2022-07-09T07:51:39;7.87;;;4.23;;
39190;SDS011;24916;51.676;6.614;2022-07-09T07:54:05;10.77;;;5.43;;
39190;SDS011;24916;51.676;6.614;2022-07-09T07:56:30;7.77;;;5.73;;
39190;SDS011;24916;51.676;6.614;2022-07-09T07:58:57;9.88;;;5.15;;
39190;SDS011;24916;51.676;6.614;2022-07-09T08:01:22;10.93;;;4.87;;
39190;SDS011;24916;51.676;6.614;2022-07-09T08:03:48;7.78;;;4.55;;
39190;SDS011;24916;51.676;6.614;2022-07-09T08:06:13;6.67;;;3.10;;
39190;SDS011;24916;51.676;6.614;2022-07-09T08:08:39;4.87;;;2.20;;
39190;SDS011;24916;51.676;6.614;2022-07-09T08:11:04;5.60;;;2.30;;
39190;SDS011;24916;51.676;6.614;2022-07-09T08:13:29;4.20;;;2.50;;
39190;SDS011;24916;51.676;6.614;2022-07-09T08:15:54;6.32;;;3.35;;
39190;SDS011;24916;51.676;6.614;2022-07-09T08:18:20;6.00;;;2.35;;
39190;SDS011;24916;51.676;6.614;2022-07-09T08:20:45;5.17;;;1.73;;
39190;SDS011;24916;51.676;6.614;2022-07-09T08:23:12;3.15;;;1.50;;
39190;SDS011;24916;51.676;6.614;2022-07-09T08:25:37;3.20;;;1.77;;
39190;SDS011;24916;51.676;6.614;2022-07-09T08:28:03;3.53;;;1.90;;
39190;SDS011;24916;51.676;6.614;2022-07-09T08:30:28;5.35;;;2.00;;
39190;SDS011;24916;51.676;6.614;2022-07-09T08:32:53;2.13;;;1.20;;
39190;SDS011;24916;51.676;6.614;2022-07-09T08:35:18;2.40;;;1.23;;
39190;SDS011;24916;51.676;6.614;2022-07-09T08:37:44;2.83;;;1.40;;
39190;SDS011;24916;51.676;6.614;2022-07-09T08:40:10;2.40;;;1.20;;
39190;SDS011;24916;51.676;6.614;2022-07-09T08:42:36;4.22;;;1.88;;
39190;SDS011;24916;51.676;6.614;2022-07-09T08:45:01;4.88;;;1.80;;
39190;SDS011;24916;51.676;6.614;2022-07-09T08:47:26;4.23;;;1.50;;
39190;SDS011;24916;51.676;6.614;2022-07-09T08:49:56;4.30;;;1.20;;
39190;SDS011;24916;51.676;6.614;2022-07-09T08:52:21;2.80;;;1.13;;
39190;SDS011;24916;51.676;6.614;2022-07-09T08:54:48;2.55;;;1.20;;
39190;SDS011;24916;51.676;6.614;2022-07-09T08:57:13;2.13;;;1.10;;
39190;SDS011;24916;51.676;6.614;2022-07-09T08:59:39;3.03;;;1.00;;
39190;SDS011;24916;51.676;6.614;2022-07-09T09:02:04;4.50;;;1.10;;
39190;SDS011;24916;51.676;6.614;2022-07-09T09:04:30;4.38;;;0.90;;
39190;SDS011;24916;51.676;6.614;2022-07-09T09:06:56;3.92;;;1.27;;
39190;SDS011;24916;51.676;6.614;2022-07-09T09:09:21;1.50;;;0.80;;
39190;SDS011;24916;51.676;6.614;2022-07-09T09:11:47;2.43;;;1.00;;
39190;SDS011;24916;51.676;6.614;2022-07-09T09:14:21;3.65;;;1.00;;
39190;SDS011;24916;51.676;6.614;2022-07-09T09:16:47;2.78;;;1.30;;
39190;SDS011;24916;51.676;6.614;2022-07-09T09:19:13;2.35;;;1.05;;
39190;SDS011;24916;51.676;6.614;2022-07-09T09:21:38;3.63;;;1.70;;
39190;SDS011;24916;51.676;6.614;2022-07-09T09:24:04;3.73;;;1.27;;
39190;SDS011;24916;51.676;6.614;2022-07-09T09:26:29;5.80;;;1.40;;
39190;SDS011;24916;51.676;6.614;2022-07-09T09:28:56;5.87;;;1.90;;
39190;SDS011;24916;51.676;6.614;2022-07-09T09:33:48;3.83;;;1.58;;
39190;SDS011;24916;51.676;6.614;2022-07-09T09:41:32;3.63;;;1.30;;
39190;SDS011;24916;51.676;6.614;2022-07-09T09:43:58;6.03;;;1.30;;
39190;SDS011;24916;51.676;6.614;2022-07-09T09:46:24;3.08;;;1.17;;
39190;SDS011;24916;51.676;6.614;2022-07-09T09:48:50;3.08;;;1.27;;
39190;SDS011;24916;51.676;6.614;2022-07-09T09:51:15;3.13;;;1.35;;
39190;SDS011;24916;51.676;6.614;2022-07-09T09:53:44;7.03;;;2.60;;
39190;SDS011;24916;51.676;6.614;2022-07-09T09:56:09;11.50;;;4.03;;
39190;SDS011;24916;51.676;6.614;2022-07-09T09:58:34;6.28;;;1.50;;
39190;SDS011;24916;51.676;6.614;2022-07-09T10:01:00;2.72;;;1.35;;
39190;SDS011;24916;51.676;6.614;2022-07-09T10:03:25;3.25;;;1.80;;
39190;SDS011;24916;51.676;6.614;2022-07-09T10:05:50;5.40;;;2.20;;
39190;SDS011;24916;51.676;6.614;2022-07-09T10:08:16;3.13;;;1.70;;
39190;SDS011;24916;51.676;6.614;2022-07-09T10:10:49;4.93;;;2.20;;
39190;SDS011;24916;51.676;6.614;2022-07-09T10:13:21;4.68;;;2.33;;
39190;SDS011;24916;51.676;6.614;2022-07-09T10:15:50;3.47;;;1.95;;
39190;SDS011;24916;51.676;6.614;2022-07-09T10:18:19;3.70;;;1.58;;
39190;SDS011;24916;51.676;6.614;2022-07-09T10:20:44;3.28;;;1.63;;
39190;SDS011;24916;51.676;6.614;2022-07-09T10:23:22;2.95;;;1.58;;
39190;SDS011;24916;51.676;6.614;2022-07-09T10:25:49;5.88;;;2.67;;
39190;SDS011;24916;51.676;6.614;2022-07-09T10:28:17;5.55;;;2.05;;
39190;SDS011;24916;51.676;6.614;2022-07-09T10:30:43;3.85;;;1.70;;
39190;SDS011;24916;51.676;6.614;2022-07-09T10:33:09;3.15;;;1.73;;
39190;SDS011;24916;51.676;6.614;2022-07-09T10:35:39;3.20;;;1.83;;
39190;SDS011;24916;51.676;6.614;2022-07-09T10:38:05;3.92;;;1.63;;
39190;SDS011;24916;51.676;6.614;2022-07-09T10:40:37;4.13;;;1.60;;
39190;SDS011;24916;51.676;6.614;2022-07-09T10:43:03;4.68;;;2.38;;
39190;SDS011;24916;51.676;6.614;2022-07-09T10:47:57;10.30;;;4.53;;
39190;SDS011;24916;51.676;6.614;2022-07-09T10:50:22;4.43;;;2.20;;
39190;SDS011;24916;51.676;6.614;2022-07-09T10:52:48;3.75;;;2.28;;
39190;SDS011;24916;51.676;6.614;2022-07-09T10:55:15;6.80;;;3.33;;
39190;SDS011;24916;51.676;6.614;2022-07-09T10:57:40;4.00;;;2.53;;
39190;SDS011;24916;51.676;6.614;2022-07-09T11:00:06;3.77;;;1.80;;
39190;SDS011;24916;51.676;6.614;2022-07-09T11:02:32;3.75;;;1.88;;
39190;SDS011;24916;51.676;6.614;2022-07-09T11:04:58;3.80;;;1.83;;
39190;SDS011;24916;51.676;6.614;2022-07-09T11:07:23;5.50;;;2.30;;
39190;SDS011;24916;51.676;6.614;2022-07-09T11:09:49;4.72;;;2.60;;
39190;SDS011;24916;51.676;6.614;2022-07-09T11:12:18;6.45;;;4.20;;
39190;SDS011;24916;51.676;6.614;2022-07-09T11:14:46;5.82;;;2.90;;
39190;SDS011;24916;51.676;6.614;2022-07-09T11:17:16;7.53;;;3.35;;
39190;SDS011;24916;51.676;6.614;2022-07-09T11:19:41;4.57;;;2.97;;
39190;SDS011;24916;51.676;6.614;2022-07-09T11:22:07;4.53;;;2.75;;
39190;SDS011;24916;51.676;6.614;2022-07-09T11:24:32;5.60;;;2.93;;
39190;SDS011;24916;51.676;6.614;2022-07-09T11:27:01;4.27;;;2.40;;
39190;SDS011;24916;51.676;6.614;2022-07-09T11:29:26;7.15;;;2.63;;
39190;SDS011;24916;51.676;6.614;2022-07-09T11:31:51;7.72;;;2.85;;
39190;SDS011;24916;51.676;6.614;2022-07-09T11:34:18;6.25;;;2.42;;
39190;SDS011;24916;51.676;6.614;2022-07-09T11:36:45;4.43;;;2.40;;
39190;SDS011;24916;51.676;6.614;2022-07-09T11:39:27;5.78;;;2.92;;
39190;SDS011;24916;51.676;6.614;2022-07-09T11:41:53;7.07;;;3.45;;
39190;SDS011;24916;51.676;6.614;2022-07-09T11:44:19;7.25;;;4.07;;
39190;SDS011;24916;51.676;6.614;2022-07-09T11:46:44;5.78;;;3.70;;
39190;SDS011;24916;51.676;6.614;2022-07-09T11:49:13;5.50;;;4.07;;
39190;SDS011;24916;51.676;6.614;2022-07-09T11:51:39;6.97;;;4.22;;
39190;SDS011;24916;51.676;6.614;2022-07-09T11:54:04;7.30;;;4.43;;
39190;SDS011;24916;51.676;6.614;2022-07-09T11:56:39;8.70;;;5.40;;
39190;SDS011;24916;51.676;6.614;2022-07-09T11:59:04;11.57;;;6.85;;
39190;SDS011;24916;51.676;6.614;2022-07-09T12:01:29;18.83;;;9.33;;
39190;SDS011;24916;51.676;6.614;2022-07-09T12:03:54;15.50;;;8.55;;
39190;SDS011;24916;51.676;6.614;2022-07-09T12:06:21;10.60;;;8.00;;
39190;SDS011;24916;51.676;6.614;2022-07-09T12:08:46;10.05;;;7.40;;
39190;SDS011;24916;51.676;6.614;2022-07-09T12:11:12;10.63;;;8.68;;
39190;SDS011;24916;51.676;6.614;2022-07-09T12:13:37;18.70;;;13.03;;
39190;SDS011;24916;51.676;6.614;2022-07-09T12:16:02;14.23;;;9.73;;
39190;SDS011;24916;51.676;6.614;2022-07-09T12:18:28;12.32;;;8.63;;
39190;SDS011;24916;51.676;6.614;2022-07-09T12:20:53;10.60;;;8.90;;
39190;SDS011;24916;51.676;6.614;2022-07-09T12:23:18;15.68;;;9.55;;
39190;SDS011;24916;51.676;6.614;2022-07-09T12:25:44;16.80;;;12.40;;
39190;SDS011;24916;51.676;6.614;2022-07-09T12:28:09;12.57;;;9.85;;
39190;SDS011;24916;51.676;6.614;2022-07-09T12:30:35;13.02;;;9.32;;
39190;SDS011;24916;51.676;6.614;2022-07-09T12:33:00;10.10;;;8.43;;
39190;SDS011;24916;51.676;6.614;2022-07-09T12:35:26;12.63;;;8.15;;
39190;SDS011;24916;51.676;6.614;2022-07-09T12:37:51;11.07;;;7.95;;
39190;SDS011;24916;51.676;6.614;2022-07-09T12:40:17;10.57;;;8.60;;
39190;SDS011;24916;51.676;6.614;2022-07-09T12:42:42;9.57;;;7.47;;
39190;SDS011;24916;51.676;6.614;2022-07-09T12:45:08;11.52;;;7.43;;
39190;SDS011;24916;51.676;6.614;2022-07-09T12:47:33;8.82;;;5.97;;
39190;SDS011;24916;51.676;6.614;2022-07-09T12:49:59;6.05;;;5.15;;
39190;SDS011;24916;51.676;6.614;2022-07-09T12:52:24;5.22;;;3.00;;
39190;SDS011;24916;51.676;6.614;2022-07-09T12:54:51;3.72;;;2.28;;
39190;SDS011;24916;51.676;6.614;2022-07-09T12:57:16;3.08;;;1.70;;
39190;SDS011;24916;51.676;6.614;2022-07-09T12:59:42;3.70;;;1.47;;
39190;SDS011;24916;51.676;6.614;2022-07-09T13:02:07;4.72;;;1.20;;
39190;SDS011;24916;51.676;6.614;2022-07-09T13:04:33;2.50;;;1.50;;
39190;SDS011;24916;51.676;6.614;2022-07-09T13:06:58;2.03;;;1.25;;
39190;SDS011;24916;51.676;6.614;2022-07-09T13:09:24;3.50;;;1.60;;
39190;SDS011;24916;51.676;6.614;2022-07-09T13:11:49;4.43;;;1.48;;
39190;SDS011;24916;51.676;6.614;2022-07-09T13:14:15;2.72;;;1.45;;
39190;SDS011;24916;51.676;6.614;2022-07-09T13:16:40;3.92;;;1.83;;
39190;SDS011;24916;51.676;6.614;2022-07-09T13:19:05;3.10;;;1.30;;
39190;SDS011;24916;51.676;6.614;2022-07-09T13:21:31;3.00;;;1.20;;
39190;SDS011;24916;51.676;6.614;2022-07-09T13:23:56;6.43;;;3.60;;
39190;SDS011;24916;51.676;6.614;2022-07-09T13:26:22;2.70;;;1.10;;
39190;SDS011;24916;51.676;6.614;2022-07-09T13:28:47;2.20;;;1.23;;
39190;SDS011;24916;51.676;6.614;2022-07-09T13:31:13;4.03;;;1.65;;
39190;SDS011;24916;51.676;6.614;2022-07-09T13:33:38;3.28;;;1.15;;
39190;SDS011;24916;51.676;6.614;2022-07-09T13:36:03;1.98;;;0.88;;
39190;SDS011;24916;51.676;6.614;2022-07-09T13:38:29;1.98;;;0.90;;
39190;SDS011;24916;51.676;6.614;2022-07-09T13:40:55;1.70;;;0.80;;
39190;SDS011;24916;51.676;6.614;2022-07-09T13:43:21;1.73;;;0.98;;
39190;SDS011;24916;51.676;6.614;2022-07-09T13:45:46;3.83;;;0.90;;
39190;SDS011;24916;51.676;6.614;2022-07-09T13:48:11;1.98;;;0.75;;
39190;SDS011;24916;51.676;6.614;2022-07-09T13:50:37;2.50;;;1.00;;
39190;SDS011;24916;51.676;6.614;2022-07-09T13:53:02;2.63;;;1.00;;
39190;SDS011;24916;51.676;6.614;2022-07-09T13:55:28;2.30;;;0.90;;
39190;SDS011;24916;51.676;6.614;2022-07-09T13:57:53;2.20;;;0.80;;
39190;SDS011;24916;51.676;6.614;2022-07-09T14:00:18;1.60;;;0.80;;
39190;SDS011;24916;51.676;6.614;2022-07-09T14:02:44;2.28;;;0.80;;
39190;SDS011;24916;51.676;6.614;2022-07-09T14:05:09;2.03;;;0.77;;
39190;SDS011;24916;51.676;6.614;2022-07-09T14:07:34;5.37;;;0.80;;
39190;SDS011;24916;51.676;6.614;2022-07-09T14:10:00;3.95;;;0.68;;
39190;SDS011;24916;51.676;6.614;2022-07-09T14:12:26;0.93;;;0.70;;
39190;SDS011;24916;51.676;6.614;2022-07-09T14:14:51;3.30;;;0.90;;
39190;SDS011;24916;51.676;6.614;2022-07-09T14:17:16;3.00;;;1.10;;
39190;SDS011;24916;51.676;6.614;2022-07-09T14:19:42;2.33;;;0.80;;
39190;SDS011;24916;51.676;6.614;2022-07-09T14:22:07;1.05;;;0.60;;
39190;SDS011;24916;51.676;6.614;2022-07-09T14:24:33;1.77;;;0.80;;
39190;SDS011;24916;51.676;6.614;2022-07-09T14:26:58;3.65;;;0.70;;
39190;SDS011;24916;51.676;6.614;2022-07-09T14:29:23;3.00;;;0.77;;
39190;SDS011;24916;51.676;6.614;2022-07-09T14:31:49;2.72;;;0.70;;
39190;SDS011;24916;51.676;6.614;2022-07-09T14:34:14;1.63;;;0.60;;
39190;SDS011;24916;51.676;6.614;2022-07-09T14:36:40;2.63;;;0.63;;
39190;SDS011;24916;51.676;6.614;2022-07-09T14:39:05;3.25;;;0.77;;